Time;durP1;ratioP1;P1;durP2;ratioP2;P2;SDS_P1;SDS_P2;PMS_P1;PMS_P2;Temp;Humidity;BMP_temperature;BMP_pressure;BME280_temperature;BME280_humidity;BME280_pressure;Samples;Min_cycle;Max_cycle;Signal;HPM_P1;HPM_P2
2022/11/16 00:01:02;;;;;;;4.80;3.78;;;10.70;99.90;;;;;;5057263;28;20048;-67
2022/11/16 00:03:30;;;;;;;5.28;3.78;;;10.70;99.90;;;;;;5056686;28;20083;-67
2022/11/16 00:05:57;;;;;;;4.85;3.83;;;10.70;99.90;;;;;;5056689;28;20119;-67
2022/11/16 00:08:24;;;;;;;4.45;3.53;;;10.70;99.90;;;;;;5056573;28;20105;-67
2022/11/16 00:10:51;;;;;;;4.65;3.80;;;10.70;99.90;;;;;;5056592;28;20083;-67
2022/11/16 00:13:17;;;;;;;4.50;3.20;;;10.70;99.90;;;;;;5056437;28;20049;-67
2022/11/16 00:15:43;;;;;;;5.80;4.20;;;10.70;99.90;;;;;;5057635;28;20381;-67
2022/11/16 00:18:08;;;;;;;5.13;3.83;;;10.70;99.90;;;;;;5056925;28;20482;-67
2022/11/16 00:20:36;;;;;;;5.72;3.78;;;10.70;99.90;;;;;;5038854;28;20428;-67
2022/11/16 00:23:02;;;;;;;6.72;3.67;;;10.70;99.90;;;;;;5038979;28;20064;-67
2022/11/16 00:25:28;;;;;;;6.32;3.80;;;10.70;99.90;;;;;;5038517;28;20049;-68
2022/11/16 00:27:53;;;;;;;6.03;4.25;;;10.70;99.90;;;;;;5056257;28;20047;-67
2022/11/16 00:30:19;;;;;;;5.18;3.83;;;10.70;99.90;;;;;;5056197;28;20048;-67
2022/11/16 00:32:44;;;;;;;6.28;4.00;;;10.70;99.90;;;;;;5056079;28;20091;-68
2022/11/16 00:35:10;;;;;;;5.75;4.18;;;10.70;99.90;;;;;;5056091;28;20050;-67
2022/11/16 00:37:36;;;;;;;4.60;3.58;;;10.70;99.90;;;;;;5056795;28;20051;-68
2022/11/16 00:40:02;;;;;;;5.13;3.90;;;10.70;99.90;;;;;;5056811;28;20091;-67
2022/11/16 00:42:27;;;;;;;4.82;3.70;;;10.70;99.90;;;;;;5037824;28;20056;-68
2022/11/16 00:44:53;;;;;;;7.35;3.70;;;10.80;99.90;;;;;;5037894;28;20091;-67
2022/11/16 00:47:18;;;;;;;6.15;3.95;;;10.70;99.90;;;;;;5055878;28;20135;-67
2022/11/16 00:49:44;;;;;;;5.25;3.60;;;10.70;99.90;;;;;;5037782;28;20060;-68
2022/11/16 00:52:10;;;;;;;4.57;3.88;;;10.70;99.90;;;;;;5055697;28;20052;-67
2022/11/16 00:54:35;;;;;;;6.78;4.03;;;10.70;99.90;;;;;;5055653;28;20060;-67
2022/11/16 00:57:01;;;;;;;5.68;3.83;;;10.80;99.90;;;;;;5056264;28;20128;-67
2022/11/16 00:59:27;;;;;;;5.93;3.90;;;10.80;99.90;;;;;;5056428;28;20397;-67
2022/11/16 01:01:52;;;;;;;5.80;3.67;;;10.80;99.90;;;;;;5055325;28;20502;-67
2022/11/16 01:04:18;;;;;;;6.70;3.72;;;10.80;99.90;;;;;;5055554;28;20049;-67
2022/11/16 01:06:44;;;;;;;4.60;3.60;;;10.80;99.90;;;;;;5054131;28;20049;-67
2022/11/16 01:09:09;;;;;;;4.32;3.47;;;10.80;99.90;;;;;;5055874;28;20084;-67
2022/11/16 01:14:21;;;;;;;5.07;3.50;;;10.80;99.90;;;;;;5055693;28;20076;-67
2022/11/16 01:16:49;;;;;;;6.10;3.35;;;10.80;99.90;;;;;;5055357;28;20582;-67
2022/11/16 01:19:15;;;;;;;6.03;3.55;;;10.80;99.90;;;;;;5056044;28;20049;-68
2022/11/16 01:21:40;;;;;;;4.32;3.33;;;10.80;99.90;;;;;;5037759;28;20208;-67
2022/11/16 01:24:06;;;;;;;4.47;3.30;;;11.10;99.90;;;;;;5055141;28;20041;-67
2022/11/16 01:26:32;;;;;;;5.63;3.70;;;10.80;99.90;;;;;;5055185;28;20397;-68
2022/11/16 01:28:58;;;;;;;4.80;3.20;;;10.80;99.90;;;;;;5055130;28;20178;-67
2022/11/16 01:31:24;;;;;;;4.88;3.35;;;10.80;99.90;;;;;;5055582;28;20098;-67
2022/11/16 01:33:49;;;;;;;5.10;3.10;;;10.90;99.90;;;;;;5054966;28;20041;-68
2022/11/16 01:36:15;;;;;;;5.65;3.30;;;10.90;99.90;;;;;;5054985;28;20412;-67
2022/11/16 01:38:42;;;;;;;4.05;3.28;;;10.90;99.90;;;;;;5055359;28;20077;-67
2022/11/16 01:41:11;;;;;;;4.35;3.25;;;10.80;99.90;;;;;;5054892;28;20421;-68
2022/11/16 01:43:54;;;;;;;5.32;3.45;;;10.90;99.90;;;;;;5054843;28;20473;-67
2022/11/16 01:46:20;;;;;;;4.40;3.20;;;10.90;99.90;;;;;;5037552;28;20443;-67
2022/11/16 01:48:49;;;;;;;5.78;3.08;;;11.00;99.90;;;;;;5055389;28;20048;-68
2022/11/16 01:51:15;;;;;;;4.57;2.97;;;10.90;99.90;;;;;;5054723;28;20440;-68
2022/11/16 01:53:41;;;;;;;4.85;3.20;;;10.90;99.90;;;;;;5054623;28;20053;-68
2022/11/16 01:56:07;;;;;;;4.72;3.13;;;10.90;99.90;;;;;;5054656;28;20182;-68
2022/11/16 01:58:34;;;;;;;4.65;3.75;;;10.90;99.90;;;;;;5055084;28;20049;-68
2022/11/16 02:00:59;;;;;;;5.32;3.38;;;10.90;99.90;;;;;;5054505;28;20037;-67
2022/11/16 02:03:25;;;;;;;4.28;3.03;;;10.90;99.90;;;;;;5036910;28;20056;-68
2022/11/16 02:06:13;;;;;;;5.22;3.20;;;10.90;99.90;;;;;;5054435;28;20485;-68
2022/11/16 02:12:35;;;;;;;4.85;3.10;;;10.90;99.90;;;;;;5054780;28;20055;-68
2022/11/16 02:15:25;;;;;;;4.55;3.35;;;10.80;99.90;;;;;;5054317;28;20059;-68
2022/11/16 02:17:57;;;;;;;5.03;3.00;;;10.80;99.90;;;;;;5054025;28;20061;-68
2022/11/16 02:20:59;;;;;;;4.50;2.90;;;10.90;99.90;;;;;;5054431;28;20045;-68
2022/11/16 02:24:06;;;;;;;5.05;3.30;;;10.80;99.90;;;;;;5037243;28;20052;-68
2022/11/16 02:26:31;;;;;;;5.57;3.33;;;10.80;99.90;;;;;;4957135;28;20086;-68
2022/11/16 02:29:19;;;;;;;5.15;2.90;;;10.80;99.90;;;;;;5037162;28;20533;-68
2022/11/16 02:32:03;;;;;;;4.47;2.90;;;10.80;99.90;;;;;;5036634;28;20052;-68
2022/11/16 02:34:41;;;;;;;4.40;3.13;;;10.80;99.90;;;;;;5054375;28;20048;-67
2022/11/16 02:37:09;;;;;;;3.90;2.88;;;10.80;99.90;;;;;;5054026;28;20396;-68
2022/11/16 02:39:37;;;;;;;4.50;3.08;;;10.80;99.90;;;;;;5053743;28;20080;-68
2022/11/16 02:42:09;;;;;;;4.63;3.08;;;10.80;99.90;;;;;;5054289;28;20056;-68
2022/11/16 02:44:42;;;;;;;4.43;3.15;;;10.80;99.90;;;;;;5053782;28;20048;-68
2022/11/16 02:47:14;;;;;;;3.42;2.60;;;10.80;99.90;;;;;;5054449;28;20059;-68
2022/11/16 02:49:45;;;;;;;5.30;2.97;;;10.80;99.90;;;;;;5054203;28;20394;-68
2022/11/16 02:52:13;;;;;;;4.50;3.10;;;11.10;99.90;;;;;;5053613;28;20053;-68
2022/11/16 02:54:38;;;;;;;6.13;2.92;;;10.80;99.90;;;;;;5053702;28;20133;-68
2022/11/16 02:57:04;;;;;;;4.88;3.22;;;10.80;99.90;;;;;;5053780;28;20461;-68
2022/11/16 02:59:38;;;;;;;5.63;3.22;;;10.80;99.90;;;;;;5053560;28;20044;-66
2022/11/16 03:02:16;;;;;;;4.22;2.90;;;10.80;99.90;;;;;;5053393;28;20053;-66
2022/11/16 03:04:49;;;;;;;5.85;3.00;;;10.80;99.90;;;;;;5053394;28;20041;-66
2022/11/16 03:07:20;;;;;;;4.25;3.03;;;10.80;99.90;;;;;;5053960;28;20128;-66
2022/11/16 03:09:49;;;;;;;3.92;2.97;;;10.70;99.90;;;;;;5053611;28;20123;-66
2022/11/16 03:12:19;;;;;;;4.70;3.10;;;10.80;99.90;;;;;;5053836;28;20053;-66
2022/11/16 03:14:57;;;;;;;5.70;3.42;;;10.70;99.90;;;;;;5035997;28;20049;-66
2022/11/16 03:17:28;;;;;;;4.47;3.20;;;10.70;99.90;;;;;;5053841;28;20461;-66
2022/11/16 03:20:03;;;;;;;3.92;3.33;;;10.70;99.90;;;;;;5053257;28;20131;-66
2022/11/16 03:22:37;;;;;;;4.65;3.58;;;10.70;99.90;;;;;;5053197;28;20099;-66
2022/11/16 03:25:05;;;;;;;5.53;3.60;;;10.70;99.90;;;;;;5053658;28;20107;-66
2022/11/16 03:27:38;;;;;;;5.25;3.40;;;10.70;99.90;;;;;;5053697;28;20045;-66
2022/11/16 03:30:21;;;;;;;5.00;3.40;;;10.70;99.90;;;;;;5052777;28;20478;-66
2022/11/16 03:33:16;;;;;;;4.35;3.30;;;10.70;99.90;;;;;;5035297;28;20056;-66
2022/11/16 03:36:10;;;;;;;5.72;3.50;;;10.70;99.90;;;;;;5048663;28;20052;-66
2022/11/16 03:38:38;;;;;;;5.30;3.63;;;10.70;99.90;;;;;;5036077;28;20365;-66
2022/11/16 03:41:07;;;;;;;5.53;3.90;;;10.70;99.90;;;;;;5053208;28;20539;-66
2022/11/16 03:43:33;;;;;;;5.40;4.10;;;10.60;99.90;;;;;;5053001;28;20072;-66
2022/11/16 03:46:00;;;;;;;5.35;3.50;;;10.70;99.90;;;;;;5052942;28;20134;-67
2022/11/16 03:48:34;;;;;;;6.00;3.75;;;10.70;99.90;;;;;;5053212;28;20076;-68
2022/11/16 03:51:01;;;;;;;5.03;3.67;;;10.70;99.90;;;;;;5052890;28;20048;-68
2022/11/16 03:53:26;;;;;;;4.75;3.63;;;10.60;99.90;;;;;;5053066;28;20458;-68
2022/11/16 03:55:52;;;;;;;5.97;3.63;;;10.60;99.90;;;;;;5053091;28;20053;-68
2022/11/16 03:58:17;;;;;;;6.55;4.32;;;10.60;99.90;;;;;;5052758;28;20049;-68
2022/11/16 04:00:44;;;;;;;5.93;4.03;;;10.60;99.90;;;;;;5053299;28;20131;-68
2022/11/16 04:03:09;;;;;;;5.53;3.80;;;10.60;99.90;;;;;;5052864;28;20049;-68
2022/11/16 04:25:03;;;;;;;5.70;4.70;;;10.70;99.90;;;;;;5053429;28;20053;-68
2022/11/16 04:30:14;;;;;;;6.80;4.85;;;10.60;99.90;;;;;;5053092;28;20060;-67
2022/11/16 04:38:09;;;;;;;6.50;4.68;;;10.60;99.90;;;;;;5052410;28;20053;-68
2022/11/16 04:40:34;;;;;;;6.50;4.72;;;10.60;99.90;;;;;;5052451;28;20045;-68
2022/11/16 04:43:04;;;;;;;6.70;4.82;;;10.60;99.90;;;;;;5056061;28;20095;-68
2022/11/16 04:48:17;;;;;;;6.05;4.85;;;10.60;99.90;;;;;;5056213;28;20055;-68
2022/11/16 04:50:43;;;;;;;7.15;4.78;;;10.60;99.90;;;;;;5056322;28;20045;-68
2022/11/16 04:53:09;;;;;;;7.22;4.95;;;10.60;99.90;;;;;;5055829;28;20049;-68
2022/11/16 04:55:35;;;;;;;5.93;4.60;;;10.60;99.90;;;;;;5055797;28;20120;-68
2022/11/16 04:58:01;;;;;;;6.65;5.10;;;10.60;99.90;;;;;;5055725;28;20080;-68
2022/11/16 05:00:28;;;;;;;5.70;4.47;;;10.60;99.90;;;;;;5056280;28;20093;-68
2022/11/16 05:02:54;;;;;;;7.65;5.03;;;10.60;99.90;;;;;;5055931;28;20450;-68
2022/11/16 05:05:20;;;;;;;7.28;5.38;;;10.60;99.90;;;;;;5055569;28;20084;-68
2022/11/16 05:07:46;;;;;;;7.47;4.82;;;10.60;99.90;;;;;;5055507;28;20059;-68
2022/11/16 05:10:12;;;;;;;6.80;4.93;;;10.90;99.90;;;;;;5056204;28;20037;-68
2022/11/16 05:12:38;;;;;;;8.50;5.57;;;10.60;99.90;;;;;;5055490;28;20053;-68
2022/11/16 05:15:05;;;;;;;7.10;5.10;;;10.60;99.90;;;;;;5055483;28;20056;-68
2022/11/16 05:17:31;;;;;;;6.05;4.90;;;10.60;99.90;;;;;;5022087;28;20049;-68
2022/11/16 05:22:41;;;;;;;7.13;5.30;;;10.60;99.90;;;;;;5056077;28;20183;-68
2022/11/16 05:25:10;;;;;;;5.88;4.82;;;10.60;99.90;;;;;;5055251;28;20537;-68
2022/11/16 05:27:36;;;;;;;7.32;5.32;;;10.60;99.90;;;;;;5055200;28;20146;-68
2022/11/16 05:30:04;;;;;;;6.65;4.95;;;10.60;99.90;;;;;;5055176;28;20049;-68
2022/11/16 05:32:29;;;;;;;7.28;5.63;;;10.50;99.90;;;;;;5056184;28;20055;-68
2022/11/16 05:34:55;;;;;;;6.93;5.32;;;10.60;99.90;;;;;;5055006;28;20045;-68
2022/11/16 05:37:25;;;;;;;7.28;5.38;;;10.60;99.90;;;;;;5055842;28;20068;-68
2022/11/16 05:39:50;;;;;;;8.13;5.85;;;10.50;99.90;;;;;;5054955;28;20049;-68
2022/11/16 05:42:16;;;;;;;7.05;5.10;;;10.50;99.90;;;;;;5055383;28;20492;-68
2022/11/16 05:44:42;;;;;;;7.13;5.00;;;10.60;99.90;;;;;;5054870;28;20049;-68
2022/11/16 05:47:07;;;;;;;6.15;5.10;;;10.50;99.90;;;;;;5037500;28;20055;-68
2022/11/16 05:49:33;;;;;;;6.70;5.57;;;10.60;99.90;;;;;;5054740;28;20087;-68
2022/11/16 05:51:59;;;;;;;7.65;5.32;;;10.50;99.90;;;;;;5054212;28;20045;-68
2022/11/16 05:54:25;;;;;;;7.72;5.68;;;10.50;99.90;;;;;;5054671;28;20098;-68
2022/11/16 05:56:52;;;;;;;7.47;5.45;;;10.50;99.90;;;;;;5055212;28;20163;-68
2022/11/16 05:59:19;;;;;;;6.82;5.22;;;10.50;99.90;;;;;;5037819;28;20605;-68
2022/11/16 06:01:46;;;;;;;8.20;5.63;;;10.50;99.90;;;;;;5054525;28;20056;-68
2022/11/16 06:04:12;;;;;;;7.07;5.28;;;10.50;99.90;;;;;;5054438;28;20044;-68
2022/11/16 06:06:38;;;;;;;7.45;5.13;;;10.50;99.90;;;;;;5036742;28;20179;-68
2022/11/16 06:09:03;;;;;;;7.38;5.38;;;10.50;99.90;;;;;;5037493;28;20387;-68
2022/11/16 06:11:30;;;;;;;7.53;5.38;;;10.50;99.90;;;;;;5036518;28;20041;-68
2022/11/16 06:13:56;;;;;;;7.25;5.18;;;10.50;99.90;;;;;;5054080;28;20061;-68
2022/11/16 06:16:22;;;;;;;6.95;5.70;;;10.50;99.90;;;;;;5054571;28;20509;-68
2022/11/16 06:18:48;;;;;;;9.18;5.90;;;10.50;99.90;;;;;;5054139;28;20055;-68
2022/11/16 06:21:16;;;;;;;6.82;5.95;;;10.50;99.90;;;;;;5037128;28;20044;-68
2022/11/16 06:23:42;;;;;;;8.27;6.20;;;10.50;99.90;;;;;;5053977;28;20417;-68
2022/11/16 06:26:08;;;;;;;7.38;5.95;;;10.50;99.90;;;;;;5054068;28;20091;-68
2022/11/16 06:28:35;;;;;;;7.22;5.78;;;10.50;99.90;;;;;;5054555;28;20080;-68
2022/11/16 06:31:01;;;;;;;8.30;6.00;;;10.50;99.90;;;;;;5054276;28;20459;-68
2022/11/16 06:33:26;;;;;;;8.85;6.50;;;10.50;99.90;;;;;;5054399;28;20040;-68
2022/11/16 06:35:52;;;;;;;9.55;6.72;;;10.50;99.90;;;;;;5053892;28;20047;-68
2022/11/16 06:38:18;;;;;;;8.20;6.13;;;10.50;99.90;;;;;;5053792;28;20064;-68
2022/11/16 06:40:51;;;;;;;7.40;5.85;;;10.50;99.90;;;;;;5053826;28;20572;-68
2022/11/16 06:43:18;;;;;;;7.55;6.15;;;10.50;99.90;;;;;;5036995;28;20111;-67
2022/11/16 06:45:52;;;;;;;8.18;6.30;;;10.50;99.90;;;;;;5053635;28;20091;-68
2022/11/16 06:48:18;;;;;;;8.70;6.28;;;10.50;99.90;;;;;;5053394;28;20631;-67
2022/11/16 06:50:46;;;;;;;8.13;6.07;;;10.50;99.90;;;;;;5053606;28;20045;-67
2022/11/16 06:53:12;;;;;;;8.32;6.65;;;10.60;99.90;;;;;;5053531;28;20045;-67
2022/11/16 06:55:37;;;;;;;9.27;7.07;;;10.60;99.90;;;;;;5053548;28;20048;-68
2022/11/16 06:58:03;;;;;;;8.93;6.60;;;10.60;99.90;;;;;;5054009;28;20083;-67
2022/11/16 07:00:29;;;;;;;8.95;6.85;;;10.50;99.90;;;;;;5053798;28;20478;-67
2022/11/16 07:02:54;;;;;;;8.90;6.95;;;10.50;99.90;;;;;;5053076;28;20044;-67
2022/11/16 07:05:20;;;;;;;8.48;6.28;;;10.60;99.90;;;;;;5035129;28;20052;-66
2022/11/16 07:07:46;;;;;;;10.00;6.60;;;10.60;99.90;;;;;;5053371;28;20183;-67
2022/11/16 07:10:12;;;;;;;7.65;5.60;;;10.50;99.90;;;;;;5053214;28;20052;-67
2022/11/16 07:12:38;;;;;;;7.18;5.85;;;10.50;99.90;;;;;;5053426;28;20084;-67
2022/11/16 07:15:04;;;;;;;8.60;6.18;;;10.50;99.90;;;;;;5053095;28;20511;-67
2022/11/16 07:17:31;;;;;;;7.68;6.20;;;10.50;99.90;;;;;;5053341;28;20080;-67
2022/11/16 07:19:57;;;;;;;8.25;5.68;;;10.50;99.90;;;;;;5053163;28;20045;-67
2022/11/16 07:22:23;;;;;;;9.07;6.28;;;10.50;99.90;;;;;;5053966;28;20047;-67
2022/11/16 07:24:49;;;;;;;8.02;6.22;;;10.50;99.90;;;;;;5053188;28;20087;-64
2022/11/16 07:27:15;;;;;;;6.85;5.60;;;10.50;99.90;;;;;;5034672;28;20124;-64
2022/11/16 07:29:40;;;;;;;7.55;5.80;;;10.60;99.90;;;;;;5035337;28;20095;-64
2022/11/16 07:32:06;;;;;;;7.93;6.07;;;10.60;99.90;;;;;;5052861;28;20045;-64
2022/11/16 07:34:32;;;;;;;8.32;6.53;;;10.50;99.90;;;;;;5034992;28;20120;-64
2022/11/16 07:36:57;;;;;;;7.82;5.97;;;10.60;99.90;;;;;;5053050;28;20060;-64
2022/11/16 07:39:23;;;;;;;8.95;6.18;;;10.50;99.90;;;;;;5018937;28;20143;-64
2022/11/16 07:41:51;;;;;;;8.05;6.13;;;10.60;99.90;;;;;;5052933;28;20044;-64
2022/11/16 07:44:17;;;;;;;8.13;6.63;;;10.60;99.90;;;;;;5035265;28;20087;-64
2022/11/16 07:46:43;;;;;;;8.68;6.38;;;10.50;99.90;;;;;;5053446;28;20045;-64
2022/11/16 07:49:14;;;;;;;9.57;6.55;;;10.60;99.90;;;;;;5052825;28;20111;-64
2022/11/16 07:51:39;;;;;;;7.22;6.10;;;10.60;99.90;;;;;;5053339;28;20041;-64
2022/11/16 07:54:05;;;;;;;9.23;7.25;;;10.60;99.90;;;;;;5052720;28;20072;-64
2022/11/16 07:56:31;;;;;;;8.63;6.65;;;10.60;99.90;;;;;;5052790;28;20045;-64
2022/11/16 07:58:57;;;;;;;8.18;6.32;;;10.60;99.90;;;;;;5052723;28;20400;-64
2022/11/16 08:01:23;;;;;;;8.73;6.60;;;10.60;99.90;;;;;;5052676;28;20053;-64
2022/11/16 08:03:52;;;;;;;10.68;8.00;;;10.60;99.90;;;;;;5053263;28;20462;-64
2022/11/16 08:06:22;;;;;;;8.63;7.10;;;10.60;99.90;;;;;;5052712;28;20045;-64
2022/11/16 08:08:48;;;;;;;9.02;7.57;;;10.60;99.90;;;;;;5052650;28;20130;-64
2022/11/16 08:11:13;;;;;;;9.02;7.13;;;10.60;99.90;;;;;;5035087;28;20099;-64
2022/11/16 08:13:40;;;;;;;8.70;7.10;;;10.70;99.90;;;;;;5051880;28;20106;-70
2022/11/16 08:16:08;;;;;;;8.68;7.00;;;10.60;99.90;;;;;;5055372;28;20053;-68
2022/11/16 08:18:35;;;;;;;9.63;7.28;;;10.60;99.90;;;;;;5056369;28;20103;-68
2022/11/16 08:21:02;;;;;;;8.95;7.10;;;10.70;99.90;;;;;;5056466;28;20045;-69
2022/11/16 08:23:29;;;;;;;9.98;7.10;;;10.70;99.90;;;;;;5056341;28;20037;-69
2022/11/16 08:26:02;;;;;;;9.73;7.10;;;10.60;99.90;;;;;;5056244;28;20131;-69
2022/11/16 08:28:29;;;;;;;9.63;7.13;;;10.70;99.90;;;;;;5038638;28;20053;-68
2022/11/16 08:30:55;;;;;;;9.13;7.18;;;10.60;99.90;;;;;;5056945;28;20068;-68
2022/11/16 08:33:22;;;;;;;8.05;6.85;;;10.70;99.90;;;;;;5056010;28;20504;-67
2022/11/16 08:35:48;;;;;;;7.85;6.47;;;10.70;99.90;;;;;;5038421;28;20045;-70
2022/11/16 08:38:14;;;;;;;7.70;6.57;;;10.70;99.90;;;;;;5056213;28;20052;-70
2022/11/16 08:40:40;;;;;;;9.90;7.10;;;10.70;99.90;;;;;;5055867;28;20132;-69
2022/11/16 08:43:06;;;;;;;8.43;6.90;;;10.70;99.90;;;;;;5055880;28;20053;-69
2022/11/16 08:45:35;;;;;;;9.65;6.88;;;10.70;99.90;;;;;;5055879;28;20107;-68
2022/11/16 08:48:00;;;;;;;9.10;6.20;;;10.70;99.90;;;;;;5055848;28;20075;-68
2022/11/16 08:50:26;;;;;;;9.05;6.90;;;10.70;99.90;;;;;;5037945;28;20049;-68
2022/11/16 08:52:52;;;;;;;8.75;6.60;;;10.80;99.90;;;;;;5055987;28;20041;-68
2022/11/16 08:55:17;;;;;;;8.90;6.65;;;10.80;99.90;;;;;;5055930;28;20044;-68
2022/11/16 08:57:44;;;;;;;9.43;6.93;;;10.80;99.90;;;;;;5038283;28;20056;-69
2022/11/16 09:00:11;;;;;;;9.88;7.60;;;10.80;99.90;;;;;;5055615;28;20086;-69
2022/11/16 09:02:37;;;;;;;8.35;6.47;;;10.80;99.90;;;;;;5055641;28;20037;-69
2022/11/16 09:05:04;;;;;;;8.45;6.55;;;10.90;99.90;;;;;;5037624;28;20465;-68
2022/11/16 09:07:29;;;;;;;9.27;6.70;;;10.90;99.90;;;;;;5038442;28;20385;-70
2022/11/16 09:09:55;;;;;;;9.38;6.85;;;10.90;99.90;;;;;;5055280;28;20041;-69
2022/11/16 09:12:21;;;;;;;8.68;6.90;;;11.00;99.90;;;;;;5055316;28;20207;-68
2022/11/16 09:14:46;;;;;;;9.07;7.07;;;11.00;99.90;;;;;;5037282;28;20064;-68
2022/11/16 09:17:12;;;;;;;10.18;7.15;;;11.00;99.90;;;;;;5038188;28;20174;-70
2022/11/16 09:19:38;;;;;;;8.70;6.72;;;11.00;99.90;;;;;;5055003;28;20059;-70
2022/11/16 09:22:04;;;;;;;8.90;7.38;;;11.00;99.90;;;;;;5037563;28;20056;-70
2022/11/16 09:24:30;;;;;;;9.55;7.57;;;11.00;99.90;;;;;;5055149;28;20045;-70
2022/11/16 09:26:59;;;;;;;9.00;7.07;;;11.10;99.90;;;;;;5054251;28;20128;-70
2022/11/16 09:29:26;;;;;;;8.57;7.00;;;11.10;99.90;;;;;;5055781;28;20102;-71
2022/11/16 09:31:52;;;;;;;9.65;7.53;;;11.20;99.90;;;;;;5037420;28;20048;-70
2022/11/16 09:34:18;;;;;;;11.30;7.50;;;11.20;99.90;;;;;;5055312;28;20041;-70
2022/11/16 09:36:44;;;;;;;8.25;6.75;;;11.20;99.90;;;;;;5055010;28;20059;-70
2022/11/16 09:39:11;;;;;;;9.40;7.43;;;11.30;99.90;;;;;;5055197;28;20530;-71
2022/11/16 09:41:40;;;;;;;10.15;7.75;;;11.30;99.90;;;;;;5054751;28;20055;-71
2022/11/16 09:44:39;;;;;;;10.63;7.57;;;11.30;99.90;;;;;;5054806;28;20477;-69
2022/11/16 09:47:13;;;;;;;10.82;7.10;;;11.40;99.90;;;;;;5055525;28;20132;-69
2022/11/16 09:49:42;;;;;;;8.90;7.13;;;11.40;99.90;;;;;;5055084;28;20048;-70
2022/11/16 09:52:31;;;;;;;10.27;7.35;;;11.40;99.90;;;;;;5054616;28;20049;-68
2022/11/16 09:55:02;;;;;;;8.95;6.47;;;11.30;99.90;;;;;;5054586;28;20484;-68
2022/11/16 09:57:36;;;;;;;9.10;7.18;;;11.30;99.90;;;;;;5054560;28;20048;-67
2022/11/16 10:00:10;;;;;;;9.50;6.20;;;11.40;99.90;;;;;;5054939;28;20045;-68
2022/11/16 10:02:57;;;;;;;8.60;6.15;;;11.40;99.90;;;;;;5054432;28;20053;-69
2022/11/16 10:05:45;;;;;;;8.93;6.30;;;11.50;99.90;;;;;;5054628;28;20565;-71
2022/11/16 10:08:29;;;;;;;7.57;5.95;;;11.50;99.90;;;;;;5054806;28;20052;-69
2022/11/16 10:11:32;;;;;;;8.23;5.65;;;11.50;99.90;;;;;;5054278;28;20047;-71
2022/11/16 10:14:16;;;;;;;8.00;6.10;;;11.50;99.90;;;;;;5037017;28;20049;-71
2022/11/16 10:16:57;;;;;;;9.48;6.25;;;11.60;99.90;;;;;;5054161;28;20060;-71
2022/11/16 10:19:41;;;;;;;8.30;6.32;;;12.00;99.90;;;;;;5054227;28;20041;-69
2022/11/16 10:22:30;;;;;;;8.00;5.78;;;12.20;99.90;;;;;;5036889;28;20053;-70
2022/11/16 10:24:58;;;;;;;6.22;4.45;;;12.60;99.90;;;;;;5054708;28;20394;-68
2022/11/16 10:27:26;;;;;;;5.78;4.55;;;13.00;99.90;;;;;;5036438;28;20453;-69
2022/11/16 10:29:52;;;;;;;7.75;4.30;;;13.10;99.90;;;;;;5053951;28;20149;-69
2022/11/16 10:32:27;;;;;;;5.45;3.85;;;12.90;99.90;;;;;;5055061;28;20088;-69
2022/11/16 10:35:08;;;;;;;5.57;3.28;;;12.90;99.90;;;;;;5054624;28;20445;-71
2022/11/16 10:37:37;;;;;;;5.05;3.40;;;12.60;99.90;;;;;;5053930;28;20521;-71
2022/11/16 10:40:28;;;;;;;7.97;3.75;;;12.40;99.90;;;;;;5053826;28;20094;-70
2022/11/16 10:43:11;;;;;;;4.93;3.67;;;12.20;99.90;;;;;;5036220;28;20131;-71
2022/11/16 10:45:59;;;;;;;4.90;3.63;;;12.00;99.90;;;;;;5053710;28;20056;-71
2022/11/16 10:48:38;;;;;;;6.63;3.63;;;12.20;99.90;;;;;;5054031;28;20044;-71
2022/11/16 10:51:06;;;;;;;5.25;3.22;;;12.40;99.90;;;;;;5053871;28;20041;-71
2022/11/16 10:53:35;;;;;;;5.63;3.22;;;12.30;99.90;;;;;;5053359;28;20470;-71
2022/11/16 10:56:24;;;;;;;5.68;3.88;;;12.30;99.90;;;;;;5053911;28;20436;-70
2022/11/16 10:58:54;;;;;;;5.50;3.10;;;12.10;99.90;;;;;;5054058;28;20041;-69
2022/11/16 11:01:35;;;;;;;6.53;3.35;;;12.00;99.90;;;;;;5053889;28;20195;-69
2022/11/16 11:04:39;;;;;;;7.32;3.00;;;11.80;99.90;;;;;;5053360;28;20040;-70
2022/11/16 11:07:36;;;;;;;4.57;2.75;;;11.70;99.90;;;;;;4972263;28;20067;-71
2022/11/16 11:10:02;;;;;;;;;;;11.60;99.90;;;;;;4949732;28;20093;-70
2022/11/16 11:12:37;;;;;;;3.63;2.88;;;11.50;99.90;;;;;;5027729;28;20391;-70
2022/11/16 11:15:22;;;;;;;4.05;2.55;;;11.50;99.90;;;;;;5053550;28;20060;-71
2022/11/16 11:17:50;;;;;;;4.82;2.92;;;11.50;99.90;;;;;;5053603;28;20051;-70
2022/11/16 11:20:16;;;;;;;5.28;3.17;;;11.60;99.90;;;;;;5052780;28;20512;-70
2022/11/16 11:22:59;;;;;;;6.45;2.65;;;11.60;99.90;;;;;;5052869;28;20045;-70
2022/11/16 11:25:29;;;;;;;5.20;2.83;;;11.60;99.90;;;;;;5053111;28;20175;-70
2022/11/16 11:28:19;;;;;;;4.50;2.88;;;11.60;99.90;;;;;;5053632;28;20045;-69
2022/11/16 11:31:08;;;;;;;4.03;2.28;;;11.60;99.90;;;;;;5052986;28;20045;-69
2022/11/16 11:33:50;;;;;;;4.57;2.50;;;11.70;99.90;;;;;;5053043;28;20449;-70
2022/11/16 11:36:25;;;;;;;5.72;2.53;;;11.70;99.90;;;;;;5053850;28;20053;-70
2022/11/16 11:39:02;;;;;;;4.05;2.15;;;11.80;99.90;;;;;;5035378;28;20049;-69
2022/11/16 11:41:38;;;;;;;;;;;11.80;99.90;;;;;;5053922;28;20057;-70
2022/11/16 11:44:17;;;;;;;5.70;2.20;;;11.80;99.90;;;;;;5053026;28;19978;-69
2022/11/16 11:47:17;;;;;;;5.15;2.08;;;11.80;99.90;;;;;;5052763;28;20045;-70
2022/11/16 11:49:51;;;;;;;4.15;2.00;;;11.80;99.90;;;;;;5020624;28;20107;-69
2022/11/16 11:53:01;;;;;;;4.82;2.05;;;11.70;99.90;;;;;;5057004;28;20089;-69
2022/11/16 11:55:27;;;;;;;5.88;1.95;;;11.70;99.90;;;;;;4985168;28;20128;-70
2022/11/16 11:57:54;;;;;;;3.28;2.13;;;11.80;99.90;;;;;;5057379;28;20370;-69
2022/11/16 12:00:21;;;;;;;5.57;2.40;;;11.80;99.90;;;;;;5039149;28;20052;-69
2022/11/16 12:03:10;;;;;;;2.78;1.55;;;11.90;99.90;;;;;;5057067;28;20098;-70
2022/11/16 12:05:56;;;;;;;4.57;1.88;;;12.10;99.90;;;;;;5057177;28;20048;-70
2022/11/16 12:08:34;;;;;;;2.90;1.52;;;12.20;99.90;;;;;;5039291;28;20057;-69
2022/11/16 12:11:23;;;;;;;3.58;1.63;;;12.30;99.90;;;;;;5057009;28;20055;-70
2022/11/16 12:14:50;;;;;;;2.97;1.40;;;12.40;99.90;;;;;;5056138;28;20056;-70
2022/11/16 12:17:44;;;;;;;3.55;1.52;;;12.40;99.90;;;;;;5020059;28;20049;-69
2022/11/16 12:20:22;;;;;;;5.30;1.73;;;12.40;99.90;;;;;;5056734;28;20095;-70
2022/11/16 12:23:05;;;;;;;5.38;1.75;;;12.40;99.90;;;;;;5057144;28;20075;-70
2022/11/16 12:26:03;;;;;;;4.47;1.67;;;12.40;99.90;;;;;;5039564;28;20060;-70
2022/11/16 12:28:44;;;;;;;6.32;1.70;;;12.40;99.90;;;;;;5056203;28;20045;-70
2022/11/16 12:31:27;;;;;;;3.35;1.27;;;12.40;99.90;;;;;;5056143;28;20045;-71
2022/11/16 12:34:14;;;;;;;3.40;1.90;;;12.30;99.90;;;;;;5055883;28;20041;-71
2022/11/16 12:37:02;;;;;;;;;;;12.40;99.90;;;;;;5056625;28;20103;-71
2022/11/16 12:39:37;;;;;;;3.67;1.48;;;12.50;99.90;;;;;;5056117;28;19925;-70
2022/11/16 12:42:19;;;;;;;4.50;1.50;;;12.50;99.90;;;;;;5056275;28;20115;-70
2022/11/16 12:45:15;;;;;;;4.03;1.33;;;12.50;99.90;;;;;;5056456;28;20378;-70
2022/11/16 12:47:57;;;;;;;4.65;1.58;;;12.50;99.90;;;;;;5055870;28;20049;-70
2022/11/16 12:50:49;;;;;;;7.10;2.72;;;12.40;99.90;;;;;;5056244;28;20068;-69
2022/11/16 12:53:42;;;;;;;4.47;1.85;;;12.40;99.90;;;;;;5056346;28;20092;-69
2022/11/16 12:56:37;;;;;;;4.22;1.75;;;12.40;99.90;;;;;;5037951;28;20114;-70
2022/11/16 12:59:15;;;;;;;7.80;1.92;;;12.40;99.90;;;;;;5021150;28;20061;-69
2022/11/16 13:01:56;;;;;;;3.78;2.00;;;12.50;99.90;;;;;;5054372;28;20114;-70
2022/11/16 13:04:28;;;;;;;4.50;1.58;;;12.40;99.90;;;;;;5056182;28;20084;-70
2022/11/16 13:07:14;;;;;;;3.28;1.75;;;12.40;99.90;;;;;;5056617;28;20051;-70
2022/11/16 13:09:46;;;;;;;4.72;1.30;;;12.40;99.90;;;;;;5055957;28;20501;-71
2022/11/16 13:12:16;;;;;;;4.38;1.40;;;12.40;99.90;;;;;;5055551;28;20048;-70
2022/11/16 13:14:49;;;;;;;5.95;1.13;;;12.30;99.90;;;;;;5055327;28;20056;-70
2022/11/16 13:17:27;;;;;;;4.97;1.30;;;12.40;99.90;;;;;;5055395;28;20051;-71
2022/11/16 13:20:12;;;;;;;7.00;1.90;;;12.40;99.90;;;;;;5055324;28;20049;-69
2022/11/16 13:22:41;;;;;;;4.05;1.20;;;12.40;99.90;;;;;;5037242;28;20136;-68
2022/11/16 13:25:35;;;;;;;4.90;1.50;;;12.30;99.90;;;;;;5055193;28;20041;-78
2022/11/16 13:28:09;;;;;;;5.93;1.45;;;12.30;99.90;;;;;;5047440;28;20100;-70
2022/11/16 13:31:02;;;;;;;4.35;1.35;;;12.30;99.90;;;;;;5037279;28;20512;-69
2022/11/16 13:33:42;;;;;;;8.00;2.13;;;12.30;99.90;;;;;;5055014;28;20064;-70
2022/11/16 13:36:38;;;;;;;4.15;1.20;;;12.30;99.90;;;;;;5055534;28;20091;-70
2022/11/16 13:39:06;;;;;;;8.45;2.05;;;12.30;99.90;;;;;;5054871;28;20045;-70
2022/11/16 13:41:37;;;;;;;4.75;1.33;;;12.20;99.90;;;;;;5054905;28;20052;-71
2022/11/16 13:44:11;;;;;;;6.65;1.30;;;12.20;99.90;;;;;;5054775;28;20040;-70
2022/11/16 13:46:49;;;;;;;3.33;1.35;;;12.20;99.90;;;;;;5037509;28;20069;-70
2022/11/16 13:49:25;;;;;;;4.43;1.63;;;12.30;99.90;;;;;;5054973;28;20482;-70
2022/11/16 13:51:57;;;;;;;5.75;1.40;;;12.30;99.90;;;;;;5037021;28;20126;-70